This is the latest recevied weather packets stored in our database for station/object G4MHJ-1. If no packets are shown the sender has not sent any weather packets the latest 10 day(s).
| Time | Temp. | Humidity | Pressure | Rain* | Wind** | Luminosity | Snow |
|---|---|---|---|---|---|---|---|
| 1788134242 | 61° F | 88% | 754.1 mmHg | 0 in | - | 0 W/m² | - |
| 1788130640 | 62° F | 87% | 754.4 mmHg | 0 in | - | 0 W/m² | - |
| 1788127040 | 63° F | 87% | 754.6 mmHg | 0 in | - | 0 W/m² | - |
| 1788123440 | 65° F | 84% | 754.6 mmHg | 0 in | - | 0 W/m² | - |
| 1788119839 | 65° F | 79% | 755 mmHg | 0 in | - | 0 W/m² | - |
| 1788116237 | 67° F | 74% | 755.2 mmHg | 0 in | - | 0 W/m² | - |
| 1788112637 | 68° F | 70% | 755.2 mmHg | 0 in | - | 16 W/m² | - |
| 1788109034 | 71° F | 64% | 755.3 mmHg | 0 in | - | 42 W/m² | - |
| 1788105434 | 71° F | 63% | 755.6 mmHg | 0 in | - | 199 W/m² | - |
| 1788101833 | 73° F | 63% | 755.8 mmHg | 0 in | - | 204 W/m² | - |
| 1788098226 | 71° F | 69% | 756.2 mmHg | 0 in | - | 510 W/m² | - |
| 1788094627 | 72° F | 65% | 756.5 mmHg | 0 in | - | 37 W/m² | - |
| 1788091026 | 73° F | 61% | 756.7 mmHg | 0 in | - | 281 W/m² | - |
| 1788087426 | 71° F | 66% | 757.1 mmHg | 0 in | - | 227 W/m² | - |
| 1788083827 | 70° F | 67% | 757.4 mmHg | 0 in | - | 292 W/m² | - |
| 1788080224 | 66° F | 80% | 757.5 mmHg | 0 in | - | 97 W/m² | - |
| 1788076622 | 64° F | 86% | 757.2 mmHg | 0 in | - | 139 W/m² | - |
| 1788073023 | 62° F | 91% | 756.8 mmHg | 0 in | - | 81 W/m² | - |
| 1788069421 | 61° F | 92% | 756.4 mmHg | 0 in | - | 21 W/m² | - |
| 1788065820 | 61° F | 90% | 756.1 mmHg | 0 in | - | 0 W/m² | - |
| 1788062222 | 62° F | 90% | 755.7 mmHg | 0 in | - | 0 W/m² | - |
| 1788058620 | 62° F | 87% | 755.2 mmHg | 0 in | - | 0 W/m² | - |
| 1788055020 | 64° F | 85% | 754.6 mmHg | 0 in | - | 0 W/m² | - |
| 1788051420 | 64° F | 88% | 754.1 mmHg | 0 in | - | 0 W/m² | - |
| 1788047820 | 64° F | 91% | 753.7 mmHg | 0 in | - | 0 W/m² | - |
* Rain latest hour (hover to see other rain measurements)
** Current wind speed in m/s (hover to see current wind gust speed)